Domov               UVHVVR             MKGP            O straneh              
ZDRAVSTVENO VARSTVO RASTLIN
  MREŽA AGROMET. POSTAJ
 ► PROGNOSTIČNA OBVESTILA
AGROMETEOROLOŠKI PODATKI -
ARSO
OBVLADOVANJE TVEGANJ ZARADI
NEUGODNIH VREMENSKIH RAZMER
  ► NARAVNE NESREČE
  ► SUŠA/MOČA
  ► NAMAKANJE
  ► ŽLED (gozdarstvo)
KARTOGRAFSKI PRIKAZI
SPLETNE POVEZAVE
PROJEKTI IN PUBLIKACIJE

AGROMETEOROLOŠKA MREŽA: VREMENSKE POSTAJE IN FENOLOŠKA OPAZOVANJA

Pregled podatkov za lokacijo Otočec, meteorološka postaja 37169

Pregled senzorjev na lokaciji

ID Ime Zadnja
vrednost
Datum
zadnje
spremembe
Tip
senzorja
3924 Relativna vlaga 2 m (% RH) 99,93 % RH 17.10.2017 07:45 50YA
3925 Temperatura 2 m ( °C) 8,25 °C 17.10.2017 07:45 50YA
3926 Omočenost lista (U) 10 U 17.10.2017 07:44 A730WET
3927 Padavine 0.2 mm (mm) 0 mm 17.10.2017 07:45 Rain-O-Matic

Pregled podatkov zadnjih 24 ur

Zap.
št.
Datum in čas Otočec
Omočenost
lista
Padavine
0.2
mm
Relativna
vlaga
2
m
Temperatura
2
m
0 17.10.2017 07:00 10 0 99,93 8,25
1 17.10.2017 06:30 10 0 99,93 8,38
2 17.10.2017 06:00 10 0 99,93 8,42
3 17.10.2017 05:30 10 0 99,93 8,51
4 17.10.2017 05:00 10 0 99,93 8,68
5 17.10.2017 04:30 10 0 99,93 9,01
6 17.10.2017 04:00 10 0 99,93 9,28
7 17.10.2017 03:30 10 0,2 99,93 9,39
8 17.10.2017 03:00 10 0 99,93 9,45
9 17.10.2017 02:30 10 0 99,93 9,56
10 17.10.2017 02:00 10 0 99,93 9,84
11 17.10.2017 01:30 10 0 99,93 10,05
12 17.10.2017 01:00 10 0 99,93 10,21
13 17.10.2017 00:30 10 0 99,93 10,63
14 17.10.2017 00:00 10 0 99,93 10,99
15 16.10.2017 23:30 10 0 99,93 11,23
16 16.10.2017 23:00 10 0 99,93 11,44
17 16.10.2017 22:30 10 0 99,93 11,55
18 16.10.2017 22:00 10 0 99,93 11,31
19 16.10.2017 21:30 10 0 99,93 11,64
20 16.10.2017 21:00 10 0 99,93 11,73
21 16.10.2017 20:30 10 0 99,87 12,38
22 16.10.2017 20:00 8,5 0 99,63 12,91
23 16.10.2017 19:30 5 0 98,89 13,35
24 16.10.2017 19:00 3 0 97,77 13,93
25 16.10.2017 18:30 2 0 95,92 14,65
26 16.10.2017 18:00 1 0 95,07 14,8
27 16.10.2017 17:30 0 0 90,06 16,02
28 16.10.2017 17:00 0 0 87,35 16,85
29 16.10.2017 16:30 0 0 79,51 18,68
30 16.10.2017 16:00 0 0 69,91 21,54
31 16.10.2017 15:30 0 0 59,95 23,32
32 16.10.2017 15:00 0 0 60,37 22,76
33 16.10.2017 14:30 0 0 58,78 23,49
34 16.10.2017 14:00 0 0 58,88 23,37
35 16.10.2017 13:30 0 0 61,07 23
36 16.10.2017 13:00 0 0 57,39 23,57
37 16.10.2017 12:30 0 0 59,63 22,65
38 16.10.2017 12:00 0,5 0 63,86 21,39
39 16.10.2017 11:30 10 0 69,71 20,2
40 16.10.2017 11:00 10 0 77,07 18,27
41 16.10.2017 10:30 10 0 83,37 16,54
42 16.10.2017 10:00 10 0 94,6 14,27
43 16.10.2017 09:30 10 0 99,93 12,15
44 16.10.2017 09:00 10 0 99,93 10,09
45 16.10.2017 08:30 10 0 99,93 8,94
46 16.10.2017 08:00 10 0 99,93 8,3
© 2011 Ministrstvo za kmetijstvo, gozdarstvo in prehrano. Vse pravice pridržane.